METAR Data
IDs: Format: Raw Decoded Include TAF

Data at: 2218 UTC 20 Nov 2018

KODO 202153Z AUTO 13008KT 10SM CLR 13/M04 A3027 RMK AO2 SLP238 T01331039
KODO 202053Z AUTO 13008KT 10SM CLR 13/M04 A3028 RMK AO2 SLP242 T01281039 56030
KODO 201953Z AUTO 16011G15KT 10SM CLR 13/M04 A3030 RMK AO2 SLP250 T01281039
KODO 201853Z AUTO 14008KT 10SM CLR 12/M03 A3034 RMK AO2 SLP262 T01171033
KODO 201753Z AUTO 14012G16KT 10SM CLR 11/M03 A3038 RMK AO2 SLP275 T01061033 10111 21011 58004
KODO 201653Z AUTO 13010KT 10SM CLR 09/M02 A3039 RMK AO2 SLP282 T00891022
KODO 201553Z AUTO 12009KT 10SM CLR 08/M01 A3040 RMK AO2 SLP284 T00781006
KODO 201453Z AUTO 09007KT 10SM CLR 05/01 A3039 RMK AO2 SLP282 T00500006 53020
KODO 201353Z AUTO 04007KT 10SM CLR 01/M02 A3037 RMK AO2 SLP278 T00061022
KODO 201253Z AUTO 05007KT 10SM CLR M01/M03 A3034 RMK AO2 SLP271 T10111028
KODO 201153Z AUTO 03008KT 10SM CLR 01/M02 A3032 RMK AO2 SLP260 T00061022 10044 20006 53006
KODO 201053Z AUTO 04009KT 10SM CLR 02/M02 A3031 RMK AO2 SLP251 T00171017
KODO 200953Z AUTO 04008KT 10SM CLR 02/M01 A3031 RMK AO2 SLP248 T00221006
KODO 200853Z AUTO 04007KT 10SM CLR 03/M01 A3030 RMK AO2 SLP245 T00281006 53003
KODO 200753Z AUTO 04008KT 10SM CLR 03/00 A3029 RMK AO2 SLP244 T00280000
KODO 200653Z AUTO 04008KT 10SM CLR 04/01 A3029 RMK AO2 SLP244 T00390006
KODO 200553Z AUTO 03007KT 10SM CLR 04/01 A3029 RMK AO2 SLP245 T00440006 10117 20039 401721006 51017
KODO 200453Z AUTO 04008KT 10SM CLR 04/01 A3028 RMK AO2 SLP244 T00440011
KODO 200353Z AUTO 02008KT 10SM CLR 06/02 A3027 RMK AO2 SLP239 T00560022
KODO 200253Z AUTO 09006KT 10SM CLR 07/02 A3024 RMK AO2 SLP231 T00670022 51023
KODO 200153Z AUTO 11005KT 10SM CLR 08/02 A3022 RMK AO2 SLP227 T00830022
KODO 200053Z AUTO 10007KT 10SM CLR 09/02 A3019 RMK AO2 SLP216 T00890022
KODO 192353Z AUTO 09007KT 10SM CLR 12/02 A3016 RMK AO2 SLP204 T01170022 10172 20117 53013
KODO 192253Z AUTO 10006KT 10SM CLR 16/02 A3015 RMK AO2 SLP194 T01560017
KODO 192153Z AUTO 09006KT 10SM CLR 17/02 A3013 RMK AO2 SLP186 T01720022
KODO 192053Z AUTO 13004KT 10SM CLR 17/01 A3012 RMK AO2 SLP182 T01670011 56022
KODO 191953Z AUTO 16003KT 10SM CLR 15/02 A3014 RMK AO2 SLP187 T01500017
KODO 191853Z AUTO VRB03KT 10SM CLR 14/02 A3016 RMK AO2 SLP197 T01390017
KODO 191753Z AUTO 00000KT 10SM CLR 12/02 A3019 RMK AO2 SLP209 T01170022 10117 21006 50001
KODO 191653Z AUTO 28005KT 9SM CLR 09/02 A3021 RMK AO2 SLP218 T00940022
KODO 191553Z AUTO 27006KT 8SM CLR 07/02 A3021 RMK AO2 SLP219 T00720017
KODO 191453Z AUTO 27003KT 5SM HZ CLR 04/01 A3019 RMK AO2 SLP216 T00390006 53012
KODO 191353Z AUTO 33003KT 5SM BR CLR 00/M02 A3017 RMK AO2 SLP214 T00001022 $
KODO 191253Z AUTO 33004KT 7SM CLR 00/M02 A3016 RMK AO2 SLP210 T00001022 $
KODO 191153Z AUTO 34003KT 9SM CLR 01/M02 A3015 RMK AO2 SLP204 T00061017 10061 20000 56004 $
KODO 191053Z AUTO 00000KT 9SM CLR 01/M01 A3015 RMK AO2 SLP203 T00111011 $